createdAt,value
2019-03-15T00:01:46.848Z,11.78
2019-03-15T00:04:15.812Z,14.35
2019-03-15T00:06:44.880Z,15.00
2019-03-15T00:09:14.258Z,14.25
2019-03-15T00:11:45.594Z,10.13
2019-03-15T00:14:14.786Z,18.48
2019-03-15T00:16:45.321Z,14.70
2019-03-15T00:19:15.712Z,19.10
2019-03-15T00:21:44.707Z,25.23
2019-03-15T00:24:14.134Z,17.67
2019-03-15T00:26:43.138Z,26.17
2019-03-15T00:29:16.722Z,17.70
2019-03-15T00:31:45.745Z,18.15
2019-03-15T00:34:18.656Z,23.42
2019-03-15T00:36:49.706Z,22.58
2019-03-15T00:39:18.683Z,14.65
2019-03-15T00:41:47.702Z,18.30
2019-03-15T00:46:47.011Z,23.50
2019-03-15T00:49:18.574Z,17.70
2019-03-15T00:51:49.075Z,15.78
2019-03-15T00:54:21.091Z,21.17
2019-03-15T00:56:53.135Z,15.93
2019-03-15T00:59:22.661Z,17.45
2019-03-15T01:01:51.655Z,17.70
2019-03-15T01:04:20.685Z,18.25
2019-03-15T01:06:49.708Z,20.32
2019-03-15T01:09:18.694Z,17.82
2019-03-15T01:11:49.348Z,17.60
2019-03-15T01:14:22.405Z,12.13
2019-03-15T01:16:58.184Z,16.95
2019-03-15T01:19:28.671Z,18.12
2019-03-15T01:21:59.325Z,13.45
2019-03-15T01:24:28.340Z,16.70
2019-03-15T01:26:57.375Z,24.15
2019-03-15T01:29:26.593Z,18.98
2019-03-15T01:31:58.880Z,19.87
2019-03-15T01:34:31.267Z,17.45
2019-03-15T01:37:01.866Z,18.40
2019-03-15T01:39:32.549Z,21.20
2019-03-15T01:42:06.285Z,21.02
2019-03-15T01:44:35.585Z,18.57
2019-03-15T01:47:06.637Z,21.80
2019-03-15T01:49:35.669Z,23.73
2019-03-15T01:52:04.718Z,21.55
2019-03-15T01:54:33.681Z,22.93
2019-03-15T01:57:05.986Z,19.30
2019-03-15T01:59:34.947Z,18.02
2019-03-15T02:02:04.893Z,18.55
2019-03-15T02:04:33.868Z,26.37
2019-03-15T02:07:02.940Z,19.23
2019-03-15T02:09:31.925Z,20.95
2019-03-15T02:12:05.121Z,24.90
2019-03-15T02:14:34.169Z,18.90
2019-03-15T02:17:04.324Z,22.87
2019-03-15T02:19:36.391Z,23.47
2019-03-15T02:22:08.534Z,24.80
2019-03-15T02:24:40.671Z,22.50
2019-03-15T02:27:09.639Z,22.93
2019-03-15T02:29:38.646Z,24.12
2019-03-15T02:32:07.672Z,16.80
2019-03-15T02:34:36.635Z,19.23
2019-03-15T02:37:06.956Z,22.65
2019-03-15T02:39:38.057Z,19.00
2019-03-15T02:42:08.709Z,22.48
2019-03-15T02:44:39.231Z,18.45
2019-03-15T02:47:12.325Z,21.65
2019-03-15T02:49:41.280Z,18.87
2019-03-15T02:52:11.493Z,15.28
2019-03-15T02:54:42.118Z,26.12
2019-03-15T02:57:11.066Z,20.17
2019-03-15T02:59:40.047Z,18.57
2019-03-15T03:02:09.012Z,24.70
2019-03-15T03:04:42.196Z,24.60
2019-03-15T03:07:11.147Z,19.37
2019-03-15T03:09:59.293Z,22.15
2019-03-15T03:12:28.264Z,19.92
2019-03-15T03:14:58.237Z,25.17
2019-03-15T03:17:29.216Z,25.57
2019-03-15T03:20:00.818Z,23.70
2019-03-15T03:22:29.924Z,34.27
2019-03-15T03:24:58.866Z,18.07
2019-03-15T03:27:27.877Z,19.80
2019-03-15T03:29:56.922Z,27.20
2019-03-15T03:32:27.464Z,19.40
2019-03-15T03:34:56.494Z,23.85
2019-03-15T03:37:28.086Z,20.82
2019-03-15T03:39:57.133Z,17.45
2019-03-15T03:42:26.118Z,18.65
2019-03-15T03:44:56.125Z,20.72
2019-03-15T03:49:56.699Z,18.50
2019-03-15T03:52:28.760Z,15.08
2019-03-15T03:54:57.843Z,13.00
2019-03-15T03:57:29.989Z,16.93
2019-03-15T04:02:28.511Z,13.18
2019-03-15T04:04:57.470Z,8.98
2019-03-15T04:07:26.439Z,15.93
2019-03-15T04:09:56.847Z,10.28
2019-03-15T04:12:27.702Z,8.88
2019-03-15T04:14:56.639Z,13.25
2019-03-15T04:17:27.238Z,13.88
2019-03-15T04:19:56.359Z,13.70
2019-03-15T04:22:25.375Z,13.60
2019-03-15T04:24:54.333Z,11.35
2019-03-15T04:27:23.301Z,12.90
2019-03-15T04:29:53.113Z,13.10
2019-03-15T04:32:22.324Z,12.15
2019-03-15T04:35:00.470Z,12.75
2019-03-15T04:37:32.339Z,13.60
2019-03-15T04:40:00.603Z,14.68
2019-03-15T04:42:29.542Z,21.63
2019-03-15T04:44:59.611Z,19.55
2019-03-15T04:49:58.424Z,16.32
2019-03-15T04:52:27.450Z,14.25
2019-03-15T04:54:56.709Z,18.62
2019-03-15T04:57:26.532Z,19.83
2019-03-15T04:59:58.728Z,17.82
2019-03-15T05:02:30.810Z,17.62
2019-03-15T05:05:02.670Z,16.35
2019-03-15T05:07:31.659Z,15.43
2019-03-15T05:10:01.150Z,21.73
2019-03-15T05:12:31.522Z,22.22
2019-03-15T05:15:03.744Z,18.50
2019-03-15T05:17:32.748Z,16.67
2019-03-15T05:20:03.572Z,19.73
2019-03-15T05:22:32.530Z,26.68
2019-03-15T05:25:03.698Z,24.27
2019-03-15T05:27:32.980Z,26.23
2019-03-15T05:30:03.982Z,20.48
2019-03-15T05:32:32.848Z,33.63
2019-03-15T05:35:01.838Z,32.03
2019-03-15T05:37:30.809Z,25.10
2019-03-15T05:40:00.917Z,27.27
2019-03-15T05:42:29.888Z,25.92
2019-03-15T05:44:58.865Z,35.20
2019-03-15T05:47:32.302Z,26.07
2019-03-15T05:50:01.392Z,26.55
2019-03-15T05:52:30.582Z,30.55
2019-03-15T05:55:05.618Z,27.55
2019-03-15T05:57:35.112Z,24.45
2019-03-15T06:00:05.625Z,22.60
2019-03-15T06:02:34.661Z,21.80
2019-03-15T06:05:05.321Z,26.23
2019-03-15T06:07:34.356Z,24.45
2019-03-15T06:10:03.321Z,27.45
2019-03-15T06:12:32.276Z,22.22
2019-03-15T06:15:06.287Z,29.20
2019-03-15T06:17:38.654Z,29.75
2019-03-15T06:20:10.105Z,26.57
2019-03-15T06:22:39.085Z,28.50
2019-03-15T06:25:10.259Z,29.27
2019-03-15T06:30:12.272Z,22.17
2019-03-15T06:32:41.229Z,26.87
2019-03-15T06:35:12.817Z,29.87
2019-03-15T06:37:41.783Z,25.08
2019-03-15T06:40:13.698Z,30.23
2019-03-15T06:42:42.374Z,25.50
2019-03-15T06:45:12.359Z,27.95
2019-03-15T06:47:48.857Z,27.15
2019-03-15T06:50:17.831Z,28.62
2019-03-15T06:52:48.434Z,28.32
2019-03-15T06:55:18.424Z,27.70
2019-03-15T06:57:48.055Z,32.17
2019-03-15T07:00:17.031Z,27.80
2019-03-15T07:02:46.319Z,24.77
2019-03-15T07:05:18.705Z,28.25
2019-03-15T07:07:54.185Z,24.05
2019-03-15T07:10:23.145Z,15.23
2019-03-15T07:12:52.131Z,22.15
2019-03-15T07:15:21.161Z,23.18
2019-03-15T07:17:50.237Z,18.03
2019-03-15T07:20:29.276Z,28.23
2019-03-15T07:22:57.906Z,22.32
2019-03-15T07:25:26.936Z,26.23
2019-03-15T07:27:56.590Z,24.18
2019-03-15T07:30:26.691Z,21.90
2019-03-15T07:33:01.685Z,30.65
2019-03-15T07:35:35.709Z,23.02
2019-03-15T07:38:07.908Z,23.15
2019-03-15T07:40:39.738Z,25.50
2019-03-15T07:43:08.844Z,21.25
2019-03-15T07:45:50.347Z,27.33
2019-03-15T07:48:22.773Z,31.37
2019-03-15T07:50:50.378Z,23.50
2019-03-15T07:53:19.452Z,20.43
2019-03-15T07:55:48.388Z,30.63
2019-03-15T07:58:17.501Z,23.97
2019-03-15T08:00:47.436Z,27.00
2019-03-15T08:03:16.792Z,23.50
2019-03-15T08:05:45.776Z,25.82
2019-03-15T08:08:14.732Z,30.37
2019-03-15T08:10:48.190Z,35.13
2019-03-15T08:13:17.166Z,29.98
2019-03-15T08:15:46.156Z,36.48
2019-03-15T08:18:15.145Z,30.05
2019-03-15T08:20:44.165Z,36.25
2019-03-15T08:23:32.494Z,26.20
2019-03-15T08:26:06.512Z,33.13
2019-03-15T08:28:36.654Z,30.92
2019-03-15T08:33:33.752Z,32.45
2019-03-15T08:36:02.767Z,27.45
2019-03-15T08:38:46.244Z,34.45
2019-03-15T08:41:06.805Z,26.62
2019-03-15T08:43:37.503Z,31.45
2019-03-15T08:46:07.706Z,33.98
2019-03-15T08:48:44.208Z,33.58
2019-03-15T08:51:13.187Z,35.30
2019-03-15T08:53:43.325Z,29.50
2019-03-15T08:56:14.732Z,33.65
2019-03-15T08:58:43.811Z,31.12
2019-03-15T09:01:12.835Z,39.18
2019-03-15T09:03:41.866Z,37.40
2019-03-15T09:06:12.383Z,28.77
2019-03-15T09:08:41.393Z,26.15
2019-03-15T09:11:10.360Z,30.15
2019-03-15T09:13:42.149Z,38.40
2019-03-15T09:16:17.160Z,35.43
2019-03-15T09:18:46.115Z,24.55
2019-03-15T09:21:15.103Z,28.65
2019-03-15T09:23:44.119Z,28.95
2019-03-15T09:26:13.267Z,19.32
2019-03-15T09:28:45.464Z,36.70
2019-03-15T09:31:18.513Z,27.75
2019-03-15T09:33:48.339Z,29.65
2019-03-15T09:36:18.941Z,26.57
2019-03-15T09:38:47.950Z,30.27
2019-03-15T09:41:31.120Z,23.27
2019-03-15T09:43:51.162Z,31.62
2019-03-15T09:46:21.574Z,32.60
2019-03-15T09:48:50.528Z,26.05
2019-03-15T09:51:19.493Z,38.35
2019-03-15T09:53:50.000Z,34.27
2019-03-15T09:56:19.043Z,28.07
2019-03-15T09:58:48.073Z,37.73
2019-03-15T10:01:33.731Z,29.37
2019-03-15T10:03:50.714Z,30.17
2019-03-15T10:06:19.768Z,35.17
2019-03-15T10:08:48.763Z,38.97
2019-03-15T10:11:20.826Z,37.00
2019-03-15T10:13:50.199Z,39.25
2019-03-15T10:16:19.212Z,29.48
2019-03-15T10:18:50.562Z,32.10
2019-03-15T10:21:18.928Z,35.23
2019-03-15T10:23:48.419Z,26.20
2019-03-15T10:26:17.389Z,29.90
2019-03-15T10:28:46.401Z,28.90
2019-03-15T10:31:17.150Z,24.67
2019-03-15T10:33:50.945Z,34.92
2019-03-15T10:36:21.400Z,22.40
2019-03-15T10:38:50.546Z,26.93
2019-03-15T10:41:20.842Z,31.82
2019-03-15T10:43:54.311Z,32.67
2019-03-15T10:46:23.458Z,35.43
2019-03-15T10:48:52.404Z,23.77
2019-03-15T10:51:21.424Z,25.92
2019-03-15T10:53:50.466Z,20.33
2019-03-15T10:56:19.455Z,24.75
2019-03-15T10:58:52.974Z,24.10
2019-03-15T11:01:19.217Z,22.85
2019-03-15T11:03:48.151Z,26.67
2019-03-15T11:06:19.654Z,24.02
2019-03-15T11:08:48.672Z,22.73
2019-03-15T11:11:17.651Z,23.35
2019-03-15T11:13:48.989Z,15.13
2019-03-15T11:16:17.311Z,20.20
2019-03-15T11:18:47.361Z,18.90
2019-03-15T11:21:16.299Z,21.00
2019-03-15T11:26:33.453Z,25.75
2019-03-15T11:29:03.684Z,18.73
2019-03-15T11:31:32.611Z,20.35
2019-03-15T11:34:01.569Z,21.12
2019-03-15T11:36:37.073Z,22.00
2019-03-15T11:39:08.118Z,20.30
2019-03-15T11:41:37.143Z,20.25
2019-03-15T11:44:06.072Z,21.60
2019-03-15T11:46:36.679Z,26.68
2019-03-15T11:49:08.335Z,20.05
2019-03-15T11:51:37.320Z,19.82
2019-03-15T11:54:06.463Z,29.92
2019-03-15T11:56:35.405Z,24.53
2019-03-15T12:01:33.456Z,28.77
2019-03-15T12:04:09.133Z,30.02
2019-03-15T12:06:37.045Z,28.12
2019-03-15T12:09:10.652Z,24.18
2019-03-15T12:11:39.620Z,26.85
2019-03-15T12:14:08.580Z,31.80
2019-03-15T12:16:39.196Z,29.65
2019-03-15T12:19:13.806Z,23.70
2019-03-15T12:21:42.894Z,28.90
2019-03-15T12:24:11.834Z,33.27
2019-03-15T12:26:41.031Z,24.57
2019-03-15T12:29:13.026Z,36.58
2019-03-15T12:31:47.732Z,36.75
2019-03-15T12:34:22.402Z,26.57
2019-03-15T12:36:51.610Z,27.87
2019-03-15T12:39:21.779Z,25.55
2019-03-15T12:41:54.673Z,27.05
2019-03-15T12:44:23.636Z,32.28
2019-03-15T12:46:52.636Z,32.45
2019-03-15T12:49:21.616Z,28.20
2019-03-15T12:51:51.328Z,28.43
2019-03-15T12:54:22.308Z,32.60
2019-03-15T12:56:53.924Z,40.60
2019-03-15T12:59:27.802Z,34.53
2019-03-15T13:01:57.396Z,36.68
2019-03-15T13:04:26.507Z,34.05
2019-03-15T13:06:55.449Z,47.67
2019-03-15T13:09:25.452Z,41.50
2019-03-15T13:11:57.472Z,32.35
2019-03-15T13:14:26.477Z,46.60
2019-03-15T13:16:55.634Z,32.48
2019-03-15T13:19:24.557Z,42.83
2019-03-15T13:21:56.909Z,35.25
2019-03-15T13:24:26.168Z,35.45
2019-03-15T13:27:07.457Z,39.58
2019-03-15T13:29:28.849Z,38.78
2019-03-15T13:31:57.827Z,31.40
2019-03-15T13:34:26.800Z,49.88
2019-03-15T13:36:55.831Z,35.33
2019-03-15T13:39:26.594Z,41.45
2019-03-15T13:41:55.679Z,32.15
2019-03-15T13:44:26.518Z,46.42
2019-03-15T13:46:57.090Z,39.10
2019-03-15T13:49:27.771Z,35.33
2019-03-15T13:51:56.729Z,47.53
2019-03-15T13:54:25.755Z,37.38
2019-03-15T13:56:54.758Z,44.18
2019-03-15T13:59:23.744Z,42.10
2019-03-15T14:01:53.873Z,44.42
2019-03-15T14:04:22.839Z,34.90
2019-03-15T14:06:58.983Z,39.35
2019-03-15T14:09:27.997Z,36.35
2019-03-15T14:11:56.961Z,44.13
2019-03-15T14:14:28.499Z,45.28
2019-03-15T14:16:57.457Z,48.98
2019-03-15T14:19:28.753Z,50.92
2019-03-15T14:22:00.880Z,60.80
2019-03-15T14:24:29.959Z,46.20
2019-03-15T14:29:28.033Z,51.65
2019-03-15T14:31:57.015Z,53.17
2019-03-15T14:34:27.889Z,70.12
2019-03-15T14:36:57.114Z,47.08
2019-03-15T14:39:27.678Z,60.38
2019-03-15T14:41:56.874Z,44.45
2019-03-15T14:44:25.970Z,57.97
2019-03-15T14:46:54.933Z,61.65
2019-03-15T14:49:28.214Z,62.08
2019-03-15T14:51:59.381Z,42.58
2019-03-15T14:54:28.644Z,53.28
2019-03-15T14:56:57.658Z,55.20
2019-03-15T14:59:26.678Z,58.02
2019-03-15T15:01:55.668Z,56.75
2019-03-15T15:04:24.804Z,49.00
2019-03-15T15:06:53.820Z,47.13
2019-03-15T15:09:23.098Z,49.87
2019-03-15T15:11:53.846Z,53.40
2019-03-15T15:14:22.876Z,55.10
2019-03-15T15:19:21.106Z,40.48
2019-03-15T15:21:52.832Z,49.43
2019-03-15T15:24:23.926Z,49.13
2019-03-15T15:26:55.081Z,46.02
2019-03-15T15:29:27.038Z,55.45
2019-03-15T15:31:56.000Z,41.50
2019-03-15T15:34:27.059Z,52.58
2019-03-15T15:36:56.029Z,47.93
2019-03-15T15:39:27.524Z,47.98
2019-03-15T15:41:58.730Z,53.68
2019-03-15T15:44:27.868Z,48.45
2019-03-15T15:46:58.129Z,50.48
2019-03-15T15:49:27.165Z,44.80
2019-03-15T15:51:57.743Z,48.52
2019-03-15T15:54:26.717Z,30.35
2019-03-15T15:56:55.670Z,36.28
2019-03-15T15:59:24.631Z,37.20
2019-03-15T16:01:53.615Z,44.85
2019-03-15T16:04:24.139Z,45.73
2019-03-15T16:06:53.149Z,49.10
2019-03-15T16:09:22.363Z,56.77
2019-03-15T16:11:51.333Z,61.42
2019-03-15T16:14:20.302Z,44.48
2019-03-15T16:16:49.361Z,50.23
2019-03-15T16:19:18.363Z,51.20
2019-03-15T16:21:47.340Z,43.42
2019-03-15T16:24:17.647Z,56.63
2019-03-15T16:26:46.618Z,47.85
2019-03-15T16:29:15.609Z,54.10
2019-03-15T16:31:44.639Z,52.93
2019-03-15T16:34:13.677Z,58.33
2019-03-15T16:36:59.171Z,61.92
2019-03-15T16:39:16.473Z,54.33
2019-03-15T16:41:45.509Z,55.85
2019-03-15T16:44:16.217Z,54.90
2019-03-15T16:46:45.201Z,59.42
2019-03-15T16:49:14.161Z,60.52
2019-03-15T16:51:43.177Z,57.67
2019-03-15T16:54:12.221Z,55.78
2019-03-15T16:56:41.250Z,59.37
2019-03-15T16:59:10.524Z,54.70
2019-03-15T17:01:42.537Z,49.25
2019-03-15T17:04:13.507Z,53.13
2019-03-15T17:06:45.391Z,60.38
2019-03-15T17:09:14.465Z,57.15
2019-03-15T17:11:43.459Z,54.10
2019-03-15T17:14:24.890Z,45.17
2019-03-15T17:16:45.437Z,47.73
2019-03-15T17:19:16.018Z,48.35
2019-03-15T17:21:45.424Z,41.60
2019-03-15T17:24:14.377Z,51.88
2019-03-15T17:26:43.351Z,48.78
2019-03-15T17:29:13.511Z,50.80
2019-03-15T17:31:42.445Z,43.38
2019-03-15T17:34:13.046Z,38.88
2019-03-15T17:36:42.034Z,38.95
2019-03-15T17:39:11.213Z,39.58
2019-03-15T17:41:40.141Z,38.57
2019-03-15T17:44:11.690Z,34.75
2019-03-15T17:46:40.716Z,41.75
2019-03-15T17:49:09.762Z,29.40
2019-03-15T17:51:38.719Z,37.28
2019-03-15T17:54:08.339Z,24.23
2019-03-15T17:56:37.334Z,36.33
2019-03-15T17:59:12.644Z,27.25
2019-03-15T18:01:40.808Z,32.25
2019-03-15T18:04:09.629Z,31.25
2019-03-15T18:06:42.608Z,25.27
2019-03-15T18:09:09.549Z,29.37
2019-03-15T18:11:41.554Z,32.75
2019-03-15T18:14:10.573Z,36.20
2019-03-15T18:16:39.742Z,26.70
2019-03-15T18:19:08.700Z,30.43
2019-03-15T18:21:45.584Z,27.35
2019-03-15T18:24:14.746Z,18.73
2019-03-15T18:26:44.016Z,24.87
2019-03-15T18:29:25.438Z,27.67
2019-03-15T18:31:43.890Z,28.95
2019-03-15T18:34:15.712Z,23.45
2019-03-15T18:36:48.622Z,22.42
2019-03-15T18:39:19.418Z,31.37
2019-03-15T18:41:50.507Z,27.98
2019-03-15T18:44:19.924Z,28.20
2019-03-15T18:46:48.871Z,30.77
2019-03-15T18:49:19.920Z,30.85
2019-03-15T18:51:48.930Z,26.75
2019-03-15T18:54:19.194Z,29.90
2019-03-15T18:56:48.206Z,27.50
2019-03-15T18:59:23.219Z,23.85
2019-03-15T19:01:55.253Z,28.35
2019-03-15T19:04:24.347Z,24.77
2019-03-15T19:06:58.768Z,26.55
2019-03-15T19:09:29.356Z,27.70
2019-03-15T19:11:58.541Z,23.38
2019-03-15T19:14:27.576Z,23.60
2019-03-15T19:16:56.537Z,25.90
2019-03-15T19:19:28.472Z,27.60
2019-03-15T19:21:57.437Z,29.65
2019-03-15T19:24:26.411Z,28.05
2019-03-15T19:26:55.452Z,21.75
2019-03-15T19:29:27.709Z,27.42
2019-03-15T19:31:57.343Z,32.23
2019-03-15T19:34:26.300Z,27.07
2019-03-15T19:36:57.073Z,32.00
2019-03-15T19:39:26.033Z,26.33
2019-03-15T19:41:56.451Z,22.67
2019-03-15T19:44:25.448Z,30.27
2019-03-15T19:46:54.483Z,33.73
2019-03-15T19:49:23.596Z,19.57
2019-03-15T19:51:52.839Z,24.85
2019-03-15T19:54:23.987Z,23.57
2019-03-15T19:56:52.957Z,26.42
2019-03-15T19:59:21.901Z,22.65
2019-03-15T20:01:56.745Z,35.58
2019-03-15T20:04:25.702Z,26.02
2019-03-15T20:09:27.424Z,29.03
2019-03-15T20:11:56.389Z,27.25
2019-03-15T20:14:25.373Z,26.33
2019-03-15T20:16:54.401Z,25.50
2019-03-15T20:19:25.863Z,29.07
2019-03-15T20:21:59.421Z,23.77
2019-03-15T20:24:29.540Z,26.37
2019-03-15T20:27:04.574Z,27.85
2019-03-15T20:29:33.530Z,37.23
2019-03-15T20:32:02.554Z,28.83
2019-03-15T20:34:31.584Z,39.13
2019-03-15T20:37:00.550Z,33.55
2019-03-15T20:39:30.415Z,30.80
2019-03-15T20:41:59.452Z,34.13
2019-03-15T20:44:29.118Z,30.20
2019-03-15T20:46:58.287Z,31.05
2019-03-15T20:49:27.284Z,29.02
2019-03-15T20:51:56.310Z,34.78
2019-03-15T20:54:25.319Z,28.32
2019-03-15T20:56:58.582Z,30.88
2019-03-15T20:59:29.261Z,33.60
2019-03-15T21:01:59.663Z,29.65
2019-03-15T21:04:30.267Z,34.15
2019-03-15T21:07:02.546Z,29.77
2019-03-15T21:09:33.004Z,28.90
2019-03-15T21:12:02.112Z,29.27
2019-03-15T21:14:31.116Z,22.23
2019-03-15T21:17:00.296Z,27.30
2019-03-15T21:19:29.267Z,21.37
2019-03-15T21:21:59.272Z,20.30
2019-03-15T21:24:28.301Z,22.95
2019-03-15T21:26:57.339Z,26.15
2019-03-15T21:32:20.595Z,18.10
2019-03-15T21:34:49.970Z,16.50
2019-03-15T21:37:18.944Z,24.63
2019-03-15T21:39:50.291Z,19.70
2019-03-15T21:42:21.098Z,16.00
2019-03-15T21:44:50.119Z,23.30
2019-03-15T21:47:21.746Z,12.58
2019-03-15T21:49:50.751Z,18.05
2019-03-15T21:52:22.370Z,16.40
2019-03-15T21:54:55.349Z,14.60
2019-03-15T21:57:25.975Z,12.75
2019-03-15T21:59:59.447Z,13.30
2019-03-15T22:02:30.126Z,10.63
2019-03-15T22:04:59.097Z,18.40
2019-03-15T22:07:28.067Z,9.25
2019-03-15T22:09:57.043Z,12.40
2019-03-15T22:12:26.027Z,12.40
2019-03-15T22:14:59.579Z,9.58
2019-03-15T22:17:31.343Z,12.50
2019-03-15T22:20:04.685Z,11.75
2019-03-15T22:22:33.669Z,12.37
2019-03-15T22:25:02.692Z,11.08
2019-03-15T22:27:31.655Z,8.23
2019-03-15T22:30:00.626Z,8.78
2019-03-15T22:32:33.017Z,6.22
2019-03-15T22:35:03.611Z,8.83
2019-03-15T22:37:35.104Z,14.35
2019-03-15T22:40:05.598Z,10.05
2019-03-15T22:42:34.598Z,13.13
2019-03-15T22:45:05.757Z,14.38
2019-03-15T22:47:40.671Z,12.80
2019-03-15T22:50:11.170Z,11.00
2019-03-15T22:52:41.204Z,11.22
2019-03-15T22:55:10.630Z,15.23
2019-03-15T22:57:39.670Z,14.75
2019-03-15T23:00:15.900Z,8.53
2019-03-15T23:02:46.633Z,13.68
2019-03-15T23:05:15.599Z,10.30
2019-03-15T23:07:44.555Z,8.60
2019-03-15T23:10:17.026Z,11.10
2019-03-15T23:12:47.692Z,6.20
2019-03-15T23:15:16.710Z,10.18
2019-03-15T23:17:45.770Z,13.48
2019-03-15T23:20:14.736Z,10.35
2019-03-15T23:22:45.224Z,7.25
2019-03-15T23:25:14.178Z,10.93
2019-03-15T23:27:44.833Z,9.70
2019-03-15T23:30:16.176Z,8.60
2019-03-15T23:32:50.668Z,6.50
2019-03-15T23:35:20.872Z,9.40
2019-03-15T23:37:53.087Z,8.95
2019-03-15T23:40:23.117Z,6.30
2019-03-15T23:42:53.357Z,7.70
2019-03-15T23:45:27.499Z,7.90
2019-03-15T23:47:56.856Z,8.35
2019-03-15T23:50:27.732Z,8.25
2019-03-15T23:53:00.360Z,13.22
2019-03-15T23:55:29.318Z,11.75
2019-03-15T23:58:04.520Z,8.25
